Time,TemperatureF,DewpointF,PressureIn,WindDirection,WindDirectionDegrees,WindSpeedMPH,WindSpeedGustMPH,Humidity,HourlyPrecipIn,Conditions,Clouds,dailyrainin,SoftwareType,DateUTC
2013-03-11 00:03:00,14.7,8.0,30.30,NE,46,0.0,0.0,76,0.00,,,0.00,weatherlink.com 1.10,2013-03-11 08:03:00,
2013-03-11 00:18:00,14.8,9.0,30.31,NE,45,0.0,1.0,76,0.00,,,0.00,weatherlink.com 1.10,2013-03-11 08:18:00,
2013-03-11 00:33:00,14.4,8.0,30.32,SSE,167,0.0,0.0,77,0.00,,,0.00,weatherlink.com 1.10,2013-03-11 08:33:00,
2013-03-11 00:48:00,14.9,8.0,30.32,West,269,0.0,1.0,74,0.00,,,0.00,weatherlink.com 1.10,2013-03-11 08:48:00,
2013-03-11 01:03:00,14.2,9.0,30.33,NE,53,1.0,2.0,78,0.00,,,0.00,weatherlink.com 1.10,2013-03-11 09:03:00,
2013-03-11 01:18:00,15.4,9.0,30.34,WNW,294,1.0,2.0,76,0.00,,,0.00,weatherlink.com 1.10,2013-03-11 09:18:00,
2013-03-11 01:33:00,14.1,8.0,30.34,WNW,294,0.0,1.0,77,0.00,,,0.00,weatherlink.com 1.10,2013-03-11 09:33:00,
2013-03-11 01:48:00,13.8,8.0,30.35,WNW,294,0.0,0.0,78,0.00,,,0.00,weatherlink.com 1.10,2013-03-11 09:48:00,
2013-03-11 02:03:00,13.7,8.0,30.36,NNW,348,0.0,0.0,77,0.00,,,0.00,weatherlink.com 1.10,2013-03-11 10:03:00,
2013-03-11 02:18:00,13.7,8.0,30.36,NNW,348,0.0,0.0,78,0.00,,,0.00,weatherlink.com 1.10,2013-03-11 10:18:00,
2013-03-11 02:33:00,13.3,8.0,30.36,NNW,348,0.0,0.0,78,0.00,,,0.00,weatherlink.com 1.10,2013-03-11 10:33:00,
2013-03-11 02:48:00,12.1,7.0,30.37,NNE,27,0.0,0.0,80,0.00,,,0.00,weatherlink.com 1.10,2013-03-11 10:48:00,
2013-03-11 03:03:00,11.9,7.0,30.38,East,81,0.0,1.0,82,0.00,,,0.00,weatherlink.com 1.10,2013-03-11 11:03:00,
2013-03-11 03:19:00,11.9,7.0,30.38,East,85,0.0,1.0,81,0.00,,,0.00,weatherlink.com 1.10,2013-03-11 11:19:00,
2013-03-11 03:34:00,12.0,7.0,30.39,East,84,0.0,0.0,81,0.00,,,0.00,weatherlink.com 1.10,2013-03-11 11:34:00,
2013-03-11 03:49:00,11.5,7.0,30.39,East,85,0.0,0.0,82,0.00,,,0.00,weatherlink.com 1.10,2013-03-11 11:49:00,
2013-03-11 04:04:00,12.5,8.0,30.39,West,271,0.0,0.0,81,0.00,,,0.00,weatherlink.com 1.10,2013-03-11 12:04:00,
2013-03-11 04:19:00,12.8,8.0,30.40,West,271,0.0,0.0,80,0.00,,,0.00,weatherlink.com 1.10,2013-03-11 12:19:00,
2013-03-11 04:34:00,11.4,7.0,30.40,SE,142,0.0,0.0,81,0.00,,,0.00,weatherlink.com 1.10,2013-03-11 12:34:00,
2013-03-11 04:49:00,10.9,7.0,30.41,SE,143,0.0,0.0,84,0.00,,,0.00,weatherlink.com 1.10,2013-03-11 12:49:00,
2013-03-11 05:04:00,12.8,8.0,30.41,ESE,120,0.0,0.0,82,0.00,,,0.00,weatherlink.com 1.10,2013-03-11 13:04:00,
2013-03-11 05:19:00,13.0,8.0,30.42,SE,125,0.0,0.0,81,0.00,,,0.00,weatherlink.com 1.10,2013-03-11 13:19:00,
2013-03-11 05:34:00,12.2,8.0,30.43,ESE,119,0.0,0.0,82,0.00,,,0.00,weatherlink.com 1.10,2013-03-11 13:34:00,
2013-03-11 05:49:00,11.1,7.0,30.43,ESE,118,0.0,0.0,83,0.00,,,0.00,weatherlink.com 1.10,2013-03-11 13:49:00,
2013-03-11 06:04:00,11.7,8.0,30.43,ESE,118,0.0,0.0,85,0.00,,,0.00,weatherlink.com 1.10,2013-03-11 14:04:00,
2013-03-11 06:34:00,11.7,8.0,30.44,ESE,118,0.0,0.0,86,0.00,,,0.00,weatherlink.com 1.10,2013-03-11 14:34:00,
2013-03-11 06:49:00,11.5,8.0,30.45,ESE,119,0.0,0.0,87,0.00,,,0.00,weatherlink.com 1.10,2013-03-11 14:49:00,
2013-03-11 07:04:00,11.4,9.0,30.45,ESE,118,0.0,0.0,88,0.00,,,0.00,weatherlink.com 1.10,2013-03-11 15:04:00,
2013-03-11 07:19:00,10.5,8.0,30.45,ESE,118,0.0,0.0,88,0.00,,,0.00,weatherlink.com 1.10,2013-03-11 15:19:00,
2013-03-11 07:34:00,11.0,8.0,30.46,ESE,118,0.0,0.0,88,0.00,,,0.00,weatherlink.com 1.10,2013-03-11 15:34:00,
2013-03-11 07:49:00,10.8,8.0,30.46,ESE,118,0.0,0.0,87,0.00,,,0.00,weatherlink.com 1.10,2013-03-11 15:49:00,
2013-03-11 08:04:00,10.7,8.0,30.47,ESE,118,0.0,0.0,88,0.00,,,0.00,weatherlink.com 1.10,2013-03-11 16:04:00,
2013-03-11 08:19:00,11.6,8.0,30.47,ESE,118,0.0,0.0,86,0.00,,,0.00,weatherlink.com 1.10,2013-03-11 16:19:00,
2013-03-11 08:34:00,11.5,8.0,30.48,ESE,119,0.0,0.0,86,0.00,,,0.00,weatherlink.com 1.10,2013-03-11 16:34:00,
2013-03-11 08:49:00,11.4,8.0,30.47,ESE,118,0.0,0.0,86,0.00,,,0.00,weatherlink.com 1.10,2013-03-11 16:49:00,
2013-03-11 09:04:00,11.3,8.0,30.48,ESE,118,0.0,0.0,86,0.00,,,0.00,weatherlink.com 1.10,2013-03-11 17:04:00,
2013-03-11 09:19:00,11.8,8.0,30.49,ESE,118,0.0,0.0,86,0.00,,,0.00,weatherlink.com 1.10,2013-03-11 17:19:00,
2013-03-11 09:34:00,12.3,9.0,30.50,ESE,118,0.0,0.0,85,0.00,,,0.00,weatherlink.com 1.10,2013-03-11 17:34:00,
2013-03-11 09:49:00,12.5,9.0,30.50,ESE,119,0.0,0.0,84,0.00,,,0.00,weatherlink.com 1.10,2013-03-11 17:49:00,
2013-03-11 10:04:00,12.9,9.0,30.50,ESE,118,0.0,0.0,83,0.00,,,0.00,weatherlink.com 1.10,2013-03-11 18:04:00,
2013-03-11 10:19:00,13.1,9.0,30.51,WSW,257,0.0,0.0,82,0.00,,,0.00,weatherlink.com 1.10,2013-03-11 18:19:00,
2013-03-11 10:34:00,13.1,9.0,30.51,WNW,290,0.0,0.0,82,0.00,,,0.00,weatherlink.com 1.10,2013-03-11 18:34:00,
2013-03-11 10:49:00,14.3,10.0,30.52,WNW,290,0.0,0.0,81,0.00,,,0.00,weatherlink.com 1.10,2013-03-11 18:49:00,
2013-03-11 11:04:00,15.7,10.0,30.52,West,272,0.0,0.0,78,0.00,,,0.00,weatherlink.com 1.10,2013-03-11 19:04:00,
2013-03-11 11:19:00,15.1,10.0,30.52,ESE,113,1.0,3.0,79,0.00,,,0.00,weatherlink.com 1.10,2013-03-11 19:19:00,
2013-03-11 11:34:00,17.2,11.0,30.52,East,101,0.0,1.0,77,0.00,,,0.00,weatherlink.com 1.10,2013-03-11 19:34:00,
2013-03-11 11:50:00,18.6,11.0,30.52,ESE,122,1.0,2.0,73,0.00,,,0.00,weatherlink.com 1.10,2013-03-11 19:50:00,
2013-03-11 12:05:00,18.0,11.0,30.53,SE,126,0.0,1.0,74,0.00,,,0.00,weatherlink.com 1.10,2013-03-11 20:05:00,
2013-03-11 12:20:00,17.4,11.0,30.54,ESE,120,1.0,3.0,75,0.00,,,0.00,weatherlink.com 1.10,2013-03-11 20:20:00,
2013-03-11 12:35:00,18.4,11.0,30.54,SE,131,0.0,1.0,73,0.00,,,0.00,weatherlink.com 1.10,2013-03-11 20:35:00,
2013-03-11 12:50:00,19.1,11.0,30.54,South,169,0.0,2.0,72,0.00,,,0.00,weatherlink.com 1.10,2013-03-11 20:50:00,
2013-03-11 13:05:00,20.6,12.0,30.54,WNW,287,0.0,3.0,69,0.00,,,0.00,weatherlink.com 1.10,2013-03-11 21:05:00,
2013-03-11 13:20:00,20.9,12.0,30.54,West,274,0.0,2.0,68,0.00,,,0.00,weatherlink.com 1.10,2013-03-11 21:20:00,
2013-03-11 13:35:00,21.1,12.0,30.55,WNW,295,0.0,4.0,68,0.00,,,0.00,weatherlink.com 1.10,2013-03-11 21:35:00,
2013-03-11 13:50:00,21.5,12.0,30.55,WNW,301,1.0,4.0,67,0.00,,,0.00,weatherlink.com 1.10,2013-03-11 21:50:00,
2013-03-11 14:05:00,22.4,13.0,30.55,WNW,298,2.0,5.0,66,0.00,,,0.00,weatherlink.com 1.10,2013-03-11 22:05:00,
2013-03-11 14:20:00,23.3,12.0,30.55,WNW,299,2.0,6.0,63,0.00,,,0.00,weatherlink.com 1.10,2013-03-11 22:20:00,
2013-03-11 14:35:00,24.3,13.0,30.55,NW,308,0.0,3.0,62,0.00,,,0.00,weatherlink.com 1.10,2013-03-11 22:35:00,
2013-03-11 14:50:00,25.0,13.0,30.55,West,264,2.0,3.0,61,0.00,,,0.00,weatherlink.com 1.10,2013-03-11 22:50:00,
2013-03-11 15:05:00,25.4,14.0,30.55,WNW,298,0.0,3.0,61,0.00,,,0.00,weatherlink.com 1.10,2013-03-11 23:05:00,
2013-03-11 15:20:00,25.0,13.0,30.55,SE,138,1.0,5.0,61,0.00,,,0.00,weatherlink.com 1.10,2013-03-11 23:20:00,
2013-03-11 15:35:00,25.4,13.0,30.55,South,185,0.0,3.0,60,0.00,,,0.00,weatherlink.com 1.10,2013-03-11 23:35:00,
2013-03-11 15:50:00,25.4,13.0,30.55,SSW,201,1.0,3.0,60,0.00,,,0.00,weatherlink.com 1.10,2013-03-11 23:50:00,
2013-03-11 16:05:00,25.0,13.0,30.55,SSE,150,0.0,4.0,60,0.00,,,0.00,weatherlink.com 1.10,2013-03-12 00:05:00,
2013-03-11 16:20:00,25.4,13.0,30.55,WSW,242,2.0,2.0,60,0.00,,,0.00,weatherlink.com 1.10,2013-03-12 00:20:00,
2013-03-11 16:35:00,25.0,13.0,30.55,SSE,148,2.0,3.0,60,0.00,,,0.00,weatherlink.com 1.10,2013-03-12 00:35:00,
2013-03-11 16:50:00,24.6,13.0,30.55,ESE,109,4.0,5.0,61,0.00,,,0.00,weatherlink.com 1.10,2013-03-12 00:50:00,
2013-03-11 17:05:00,23.9,13.0,30.55,SE,131,0.0,4.0,63,0.00,,,0.00,weatherlink.com 1.10,2013-03-12 01:05:00,
2013-03-11 17:20:00,23.9,13.0,30.55,ESE,120,2.0,3.0,63,0.00,,,0.00,weatherlink.com 1.10,2013-03-12 01:20:00,
2013-03-11 17:35:00,24.5,13.0,30.55,South,172,1.0,3.0,62,0.00,,,0.00,weatherlink.com 1.10,2013-03-12 01:35:00,
2013-03-11 17:50:00,23.2,13.0,30.56,ESE,117,0.0,4.0,64,0.00,,,0.00,weatherlink.com 1.10,2013-03-12 01:50:00,
2013-03-11 18:05:00,23.2,13.0,30.56,ESE,117,1.0,2.0,65,0.00,,,0.00,weatherlink.com 1.10,2013-03-12 02:05:00,
2013-03-11 18:20:00,22.8,13.0,30.56,SE,129,0.0,2.0,65,0.00,,,0.00,weatherlink.com 1.10,2013-03-12 02:20:00,
2013-03-11 18:35:00,23.3,11.0,30.56,West,260,0.0,1.0,60,0.00,,,0.00,weatherlink.com 1.10,2013-03-12 02:35:00,
2013-03-11 18:50:00,23.6,12.0,30.56,West,259,0.0,1.0,61,0.00,,,0.00,weatherlink.com 1.10,2013-03-12 02:50:00,
2013-03-11 19:05:00,21.5,12.0,30.56,SSW,212,0.0,0.0,67,0.00,,,0.00,weatherlink.com 1.10,2013-03-12 03:05:00,
2013-03-11 19:20:00,21.8,10.0,30.56,NW,324,1.0,2.0,61,0.00,,,0.00,weatherlink.com 1.10,2013-03-12 03:20:00,
2013-03-11 19:35:00,20.9,10.0,30.57,NW,326,0.0,1.0,62,0.00,,,0.00,weatherlink.com 1.10,2013-03-12 03:35:00,
2013-03-11 19:50:00,21.0,8.0,30.57,ENE,58,4.0,7.0,57,0.00,,,0.00,weatherlink.com 1.10,2013-03-12 03:50:00,
2013-03-11 20:05:00,21.1,8.0,30.57,NE,47,3.0,6.0,57,0.00,,,0.00,weatherlink.com 1.10,2013-03-12 04:05:00,
2013-03-11 20:20:00,20.7,8.0,30.57,NE,53,4.0,8.0,58,0.00,,,0.00,weatherlink.com 1.10,2013-03-12 04:20:00,
2013-03-11 20:35:00,20.0,8.0,30.58,NE,56,4.0,7.0,59,0.00,,,0.00,weatherlink.com 1.10,2013-03-12 04:35:00,
2013-03-11 20:50:00,19.5,8.0,30.58,NE,47,7.0,9.0,60,0.00,,,0.00,weatherlink.com 1.10,2013-03-12 04:50:00,
2013-03-11 21:05:00,19.0,7.0,30.58,NE,36,5.0,9.0,60,0.00,,,0.00,weatherlink.com 1.10,2013-03-12 05:05:00,
2013-03-11 21:20:00,18.3,7.0,30.58,NE,35,3.0,10.0,61,0.00,,,0.00,weatherlink.com 1.10,2013-03-12 05:20:00,
2013-03-11 21:35:00,17.9,7.0,30.58,ENE,63,4.0,9.0,62,0.00,,,0.00,weatherlink.com 1.10,2013-03-12 05:35:00,
2013-03-11 21:51:00,17.3,7.0,30.58,NE,45,2.0,7.0,63,0.00,,,0.00,weatherlink.com 1.10,2013-03-12 05:51:00,
2013-03-11 22:06:00,17.3,6.0,30.58,NNE,32,5.0,11.0,62,0.00,,,0.00,weatherlink.com 1.10,2013-03-12 06:06:00,
2013-03-11 22:21:00,16.8,6.0,30.59,NE,49,2.0,7.0,62,0.00,,,0.00,weatherlink.com 1.10,2013-03-12 06:21:00,
2013-03-11 22:36:00,16.8,6.0,30.59,NE,39,5.0,8.0,62,0.00,,,0.00,weatherlink.com 1.10,2013-03-12 06:36:00,
2013-03-11 22:51:00,16.2,6.0,30.59,ENE,63,10.0,10.0,63,0.00,,,0.00,weatherlink.com 1.10,2013-03-12 06:51:00,
2013-03-11 23:06:00,15.8,6.0,30.59,NE,39,3.0,7.0,64,0.00,,,0.00,weatherlink.com 1.10,2013-03-12 07:06:00,
2013-03-11 23:21:00,15.6,5.0,30.59,NE,47,3.0,6.0,64,0.00,,,0.00,weatherlink.com 1.10,2013-03-12 07:21:00,
2013-03-11 23:51:00,14.5,5.0,30.59,NE,46,2.0,5.0,66,0.00,,,0.00,weatherlink.com 1.10,2013-03-12 07:51:00,